createdAt,value
2022-09-27T00:00:06.570Z,100.20
2022-09-27T00:06:24.743Z,85.63
2022-09-27T00:09:28.307Z,94.68
2022-09-27T00:12:31.638Z,81.72
2022-09-27T00:15:35.107Z,73.07
2022-09-27T00:18:39.959Z,72.97
2022-09-27T00:21:44.405Z,70.55
2022-09-27T00:24:47.770Z,83.20
2022-09-27T00:27:51.071Z,63.58
2022-09-27T00:30:55.136Z,68.45
2022-09-27T00:34:02.450Z,63.15
2022-09-27T00:37:05.915Z,80.40
2022-09-27T00:40:10.118Z,72.18
2022-09-27T00:43:19.447Z,94.97
2022-09-27T00:46:28.447Z,120.30
2022-09-27T00:49:37.170Z,99.97
2022-09-27T00:52:47.397Z,156.65
2022-09-27T00:55:54.481Z,131.82
2022-09-27T00:59:01.307Z,100.68
2022-09-27T01:02:07.444Z,201.80
2022-09-27T01:05:15.003Z,149.38
2022-09-27T01:08:18.389Z,122.40
2022-09-27T01:11:34.281Z,130.15
2022-09-27T01:14:54.416Z,85.53
2022-09-27T01:18:14.839Z,106.65
2022-09-27T01:21:45.081Z,178.32
2022-09-27T01:25:01.355Z,157.45
2022-09-27T01:28:21.188Z,151.55
2022-09-27T01:31:33.536Z,224.80
2022-09-27T01:34:45.293Z,237.20
2022-09-27T01:37:55.739Z,139.52
2022-09-27T01:41:05.222Z,202.90
2022-09-27T01:44:51.996Z,94.93
2022-09-27T01:58:11.141Z,75.40
2022-09-27T02:01:16.718Z,108.22
2022-09-27T02:04:23.603Z,70.45
2022-09-27T02:07:35.995Z,157.40
2022-09-27T02:10:43.586Z,90.47
2022-09-27T02:13:59.479Z,69.10
2022-09-27T02:17:27.361Z,63.22
2022-09-27T02:20:35.325Z,94.32
2022-09-27T02:23:44.959Z,56.55
2022-09-27T02:26:58.062Z,215.43
2022-09-27T02:30:08.169Z,90.53
2022-09-27T02:33:13.355Z,157.00
2022-09-27T02:36:17.577Z,75.57
2022-09-27T02:39:22.115Z,60.20
2022-09-27T02:42:34.457Z,86.38
2022-09-27T02:45:50.057Z,70.65
2022-09-27T02:49:05.083Z,75.47
2022-09-27T02:52:19.968Z,54.17
2022-09-27T02:55:33.930Z,54.58
2022-09-27T02:59:03.318Z,66.97
2022-09-27T03:02:38.462Z,81.55
2022-09-27T03:06:05.644Z,56.20
2022-09-27T03:09:19.213Z,92.72
2022-09-27T03:12:26.117Z,101.50
2022-09-27T03:15:30.045Z,52.70
2022-09-27T03:18:38.197Z,100.15
2022-09-27T03:22:10.735Z,94.68
2022-09-27T03:25:14.203Z,74.30
2022-09-27T03:28:18.239Z,62.00
2022-09-27T03:31:22.484Z,119.78
2022-09-27T03:34:50.577Z,106.15
2022-09-27T03:37:54.050Z,83.45
2022-09-27T03:40:57.522Z,129.83
2022-09-27T03:44:01.867Z,91.55
2022-09-27T03:47:08.278Z,112.80
2022-09-27T03:50:14.501Z,110.20
2022-09-27T03:53:17.953Z,203.05
2022-09-27T03:56:21.363Z,96.00
2022-09-27T03:59:25.277Z,130.98
2022-09-27T04:02:48.078Z,59.38
2022-09-27T04:06:02.077Z,91.38
2022-09-27T04:09:13.422Z,158.20
2022-09-27T04:12:43.091Z,78.73
2022-09-27T04:15:51.309Z,164.23
2022-09-27T04:19:14.072Z,71.70
2022-09-27T04:22:24.814Z,82.18
2022-09-27T04:25:28.213Z,115.32
2022-09-27T04:28:34.652Z,79.93
2022-09-27T04:31:38.457Z,110.55
2022-09-27T04:35:26.892Z,117.53
2022-09-27T04:38:31.899Z,113.07
2022-09-27T04:41:35.714Z,88.93
2022-09-27T04:44:39.119Z,279.52
2022-09-27T04:47:45.164Z,160.52
2022-09-27T04:50:48.587Z,91.45
2022-09-27T04:53:53.680Z,414.05
2022-09-27T04:56:57.592Z,152.02
2022-09-27T05:00:01.299Z,104.25
2022-09-27T05:03:05.270Z,84.63
2022-09-27T05:06:26.140Z,82.22
2022-09-27T05:09:33.815Z,70.30
2022-09-27T05:12:37.535Z,64.65
2022-09-27T05:15:40.913Z,65.40
2022-09-27T05:19:16.977Z,68.32
2022-09-27T05:22:41.933Z,65.65
2022-09-27T05:25:47.131Z,61.60
2022-09-27T05:28:50.652Z,65.65
2022-09-27T05:31:54.156Z,308.80
2022-09-27T05:34:57.882Z,61.03
2022-09-27T05:38:02.060Z,50.67
2022-09-27T05:41:09.790Z,52.28
2022-09-27T05:44:14.341Z,44.92
2022-09-27T05:47:25.381Z,45.53
2022-09-27T05:50:29.351Z,49.50
2022-09-27T05:53:32.955Z,52.75
2022-09-27T05:56:40.552Z,56.35
2022-09-27T06:00:00.527Z,57.38
2022-09-27T06:03:16.084Z,62.58
2022-09-27T06:06:38.312Z,57.35
2022-09-27T06:09:44.318Z,58.35
2022-09-27T06:12:50.832Z,58.53
2022-09-27T06:16:06.578Z,54.08
2022-09-27T06:19:12.233Z,107.95
2022-09-27T06:22:16.264Z,62.95
2022-09-27T06:25:33.148Z,56.53
2022-09-27T06:28:51.459Z,57.60
2022-09-27T06:31:58.024Z,54.40
2022-09-27T06:35:20.245Z,46.67
2022-09-27T06:38:24.930Z,42.90
2022-09-27T06:41:44.025Z,41.08
2022-09-27T06:44:54.806Z,41.88
2022-09-27T06:48:17.557Z,39.90
2022-09-27T06:51:28.597Z,40.50
2022-09-27T06:54:32.354Z,40.85
2022-09-27T06:57:54.347Z,35.72
2022-09-27T07:00:59.698Z,35.00
2022-09-27T07:04:24.113Z,34.83
2022-09-27T07:07:34.169Z,36.58
2022-09-27T07:10:38.688Z,57.60
2022-09-27T07:13:43.747Z,27.88
2022-09-27T07:16:48.961Z,28.58
2022-09-27T07:19:54.279Z,28.60
2022-09-27T07:22:57.974Z,26.33
2022-09-27T07:26:04.498Z,23.60
2022-09-27T07:29:09.462Z,27.20
2022-09-27T07:32:14.773Z,125.10
2022-09-27T07:35:18.313Z,21.05
2022-09-27T07:38:21.831Z,20.30
2022-09-27T07:41:25.276Z,19.17
2022-09-27T07:44:30.198Z,20.58
2022-09-27T07:47:54.214Z,19.63
2022-09-27T07:51:07.711Z,19.08
2022-09-27T07:54:19.133Z,20.05
2022-09-27T07:57:24.114Z,19.63
2022-09-27T08:00:30.183Z,21.48
2022-09-27T08:03:35.074Z,29.77
2022-09-27T08:06:38.518Z,33.00
2022-09-27T08:09:41.923Z,31.95
2022-09-27T08:12:46.340Z,25.55
2022-09-27T08:15:52.750Z,18.38
2022-09-27T08:18:58.231Z,11.38
2022-09-27T08:22:27.646Z,12.55
2022-09-27T08:25:35.188Z,13.55
2022-09-27T08:28:49.419Z,9.82
2022-09-27T08:31:59.832Z,10.32
2022-09-27T08:35:07.378Z,13.65
2022-09-27T08:38:11.863Z,10.63
2022-09-27T08:41:27.549Z,12.55
2022-09-27T08:44:39.101Z,13.90
2022-09-27T08:51:03.783Z,12.02
2022-09-27T08:54:13.408Z,66.68
2022-09-27T08:57:18.133Z,10.82
2022-09-27T09:00:23.342Z,10.15
2022-09-27T09:03:30.718Z,9.88
2022-09-27T09:06:44.164Z,8.55
2022-09-27T09:09:54.419Z,11.50
2022-09-27T09:13:04.750Z,10.00
2022-09-27T09:16:28.476Z,8.23
2022-09-27T09:19:54.986Z,8.93
2022-09-27T09:23:27.323Z,11.50
2022-09-27T09:26:36.284Z,7.43
2022-09-27T09:30:07.094Z,7.70
2022-09-27T09:33:23.142Z,8.73
2022-09-27T09:36:32.619Z,8.43
2022-09-27T09:39:43.810Z,9.15
2022-09-27T09:42:50.195Z,8.10
2022-09-27T09:45:59.523Z,7.53
2022-09-27T09:49:07.324Z,8.15
2022-09-27T09:52:15.185Z,6.70
2022-09-27T09:55:24.731Z,7.97
2022-09-27T09:58:33.485Z,7.82
2022-09-27T10:01:44.010Z,9.27
2022-09-27T10:04:47.407Z,27.15
2022-09-27T10:07:53.218Z,10.93
2022-09-27T10:10:58.256Z,8.50
2022-09-27T10:14:02.950Z,9.18
2022-09-27T10:17:12.145Z,8.75
2022-09-27T10:20:26.032Z,11.57
2022-09-27T10:23:30.449Z,11.30
2022-09-27T10:26:43.654Z,12.73
2022-09-27T10:29:47.164Z,11.88
2022-09-27T10:33:00.621Z,13.65
2022-09-27T10:36:26.287Z,15.20
2022-09-27T10:39:30.100Z,12.30
2022-09-27T10:42:38.614Z,9.57
2022-09-27T10:45:45.072Z,8.27
2022-09-27T10:49:14.114Z,8.38
2022-09-27T10:52:20.201Z,8.75
2022-09-27T10:55:26.838Z,10.57
2022-09-27T10:58:35.916Z,11.05
2022-09-27T11:01:45.425Z,11.98
2022-09-27T11:05:14.966Z,12.43
2022-09-27T11:08:31.995Z,11.90
2022-09-27T11:11:46.304Z,10.82
2022-09-27T11:14:58.304Z,11.88
2022-09-27T11:18:13.027Z,12.07
2022-09-27T11:21:28.142Z,12.52
2022-09-27T11:24:50.744Z,11.07
2022-09-27T11:28:07.819Z,11.65
2022-09-27T11:31:28.261Z,12.05
2022-09-27T11:35:02.499Z,10.27
2022-09-27T11:38:40.681Z,8.70
2022-09-27T11:41:58.243Z,8.40
2022-09-27T11:45:41.187Z,10.50
2022-09-27T11:49:02.782Z,7.10
2022-09-27T11:52:34.331Z,8.35
2022-09-27T11:55:47.314Z,9.60
2022-09-27T11:59:04.303Z,8.77
2022-09-27T12:02:26.925Z,9.95
2022-09-27T12:05:39.013Z,8.75
2022-09-27T12:09:03.052Z,10.55
2022-09-27T12:12:12.513Z,10.85
2022-09-27T12:15:18.561Z,11.82
2022-09-27T12:18:28.638Z,9.68
2022-09-27T12:21:34.771Z,10.75
2022-09-27T12:24:39.528Z,11.60
2022-09-27T12:28:05.232Z,10.25
2022-09-27T12:31:28.848Z,9.98
2022-09-27T12:34:39.229Z,10.85
2022-09-27T12:37:50.785Z,9.30
2022-09-27T12:40:58.560Z,10.27
2022-09-27T12:44:14.087Z,9.35
2022-09-27T12:47:51.531Z,9.93
2022-09-27T12:51:04.782Z,9.18
2022-09-27T12:54:40.523Z,10.57
2022-09-27T12:57:51.714Z,7.20
2022-09-27T13:01:06.097Z,8.55
2022-09-27T13:04:25.288Z,9.13
2022-09-27T13:07:43.547Z,10.27
2022-09-27T13:10:56.931Z,10.05
2022-09-27T13:14:06.415Z,9.23
2022-09-27T13:17:48.745Z,8.23
2022-09-27T13:21:12.353Z,7.93
2022-09-27T13:24:43.155Z,12.55
2022-09-27T13:28:38.109Z,8.07
2022-09-27T13:32:22.621Z,7.57
2022-09-27T13:36:08.057Z,9.18
2022-09-27T13:39:23.394Z,9.32
2022-09-27T13:42:55.728Z,7.35
2022-09-27T13:46:05.164Z,7.90
2022-09-27T13:49:20.079Z,10.60
2022-09-27T13:53:03.574Z,9.85
2022-09-27T13:56:28.089Z,11.05
2022-09-27T13:59:43.464Z,9.18
2022-09-27T14:03:08.823Z,11.05
2022-09-27T14:06:17.280Z,10.10
2022-09-27T14:09:27.194Z,9.13
2022-09-27T14:12:42.521Z,7.78
2022-09-27T14:15:50.259Z,8.98
2022-09-27T14:18:59.676Z,9.05
2022-09-27T14:22:16.164Z,8.23
2022-09-27T14:25:49.928Z,8.82
2022-09-27T14:28:55.635Z,9.27
2022-09-27T14:32:10.617Z,11.60
2022-09-27T14:35:47.639Z,9.85
2022-09-27T14:38:51.305Z,9.93
2022-09-27T14:42:06.572Z,8.43
2022-09-27T14:45:21.387Z,8.85
2022-09-27T14:48:28.722Z,9.88
2022-09-27T14:51:35.692Z,12.18
2022-09-27T14:54:39.747Z,7.63
2022-09-27T14:57:48.050Z,7.85
2022-09-27T15:00:51.893Z,12.02
2022-09-27T15:03:55.911Z,11.13
2022-09-27T15:07:03.476Z,10.68
2022-09-27T15:10:07.933Z,8.98
2022-09-27T15:13:17.255Z,9.48
2022-09-27T15:16:24.541Z,13.02
2022-09-27T15:19:30.300Z,11.43
2022-09-27T15:22:38.390Z,10.63
2022-09-27T15:25:57.204Z,9.65
2022-09-27T15:29:00.798Z,13.90
2022-09-27T15:32:06.656Z,10.50
2022-09-27T15:35:11.465Z,10.48
2022-09-27T15:38:26.626Z,11.30
2022-09-27T15:42:03.733Z,10.15
2022-09-27T15:45:31.698Z,12.93
2022-09-27T15:48:38.655Z,13.27
2022-09-27T15:51:44.974Z,15.60
2022-09-27T15:54:52.684Z,13.63
2022-09-27T15:57:59.418Z,17.20
2022-09-27T16:01:05.692Z,17.48
2022-09-27T16:04:10.397Z,20.70
2022-09-27T16:07:16.017Z,18.38
2022-09-27T16:10:23.640Z,22.48
2022-09-27T16:13:32.766Z,23.58
2022-09-27T16:16:36.998Z,21.58
2022-09-27T16:19:40.573Z,22.33
2022-09-27T16:22:44.272Z,26.15
2022-09-27T16:25:49.351Z,39.65
2022-09-27T16:28:53.513Z,39.25
2022-09-27T16:31:57.700Z,40.90
2022-09-27T16:35:06.704Z,38.05
2022-09-27T16:38:13.124Z,33.85
2022-09-27T16:41:21.467Z,28.83
2022-09-27T16:44:27.928Z,27.88
2022-09-27T16:47:37.547Z,38.40
2022-09-27T16:51:03.288Z,35.88
2022-09-27T16:54:11.525Z,31.85
2022-09-27T16:57:17.062Z,30.48
2022-09-27T17:00:21.459Z,33.50
2022-09-27T17:03:25.569Z,33.13
2022-09-27T17:06:31.939Z,41.03
2022-09-27T17:09:38.504Z,48.35
2022-09-27T17:12:43.891Z,30.95
2022-09-27T17:15:48.265Z,31.13
2022-09-27T17:18:52.746Z,29.15
2022-09-27T17:21:57.801Z,35.45
2022-09-27T17:25:01.985Z,27.50
2022-09-27T17:28:08.109Z,24.65
2022-09-27T17:31:18.180Z,31.15
2022-09-27T17:34:22.626Z,28.15
2022-09-27T17:37:26.872Z,21.65
2022-09-27T17:40:31.028Z,22.25
2022-09-27T17:43:38.048Z,26.17
2022-09-27T17:46:44.875Z,27.48
2022-09-27T17:50:05.976Z,53.03
2022-09-27T17:53:11.986Z,54.85
2022-09-27T17:56:16.569Z,57.65
2022-09-27T17:59:23.227Z,96.75
2022-09-27T18:02:27.679Z,57.47
2022-09-27T18:05:31.969Z,45.05
2022-09-27T18:08:35.890Z,55.17
2022-09-27T18:11:40.965Z,51.30
2022-09-27T18:14:46.364Z,49.75
2022-09-27T18:17:58.135Z,50.88
2022-09-27T18:21:04.115Z,41.25
2022-09-27T18:24:08.510Z,37.97
2022-09-27T18:27:16.270Z,39.15
2022-09-27T18:30:25.905Z,40.15
2022-09-27T18:33:30.513Z,39.70
2022-09-27T18:36:34.684Z,38.85
2022-09-27T18:39:40.421Z,43.03
2022-09-27T18:42:47.150Z,39.78
2022-09-27T18:45:53.173Z,37.72
2022-09-27T18:48:57.229Z,35.13
2022-09-27T18:52:01.013Z,37.42
2022-09-27T18:55:04.829Z,34.25
2022-09-27T18:58:10.945Z,40.83
2022-09-27T19:01:17.774Z,54.97
2022-09-27T19:04:25.107Z,33.53
2022-09-27T19:07:30.177Z,36.35
2022-09-27T19:10:35.552Z,32.00
2022-09-27T19:13:48.539Z,33.40
2022-09-27T19:16:56.810Z,31.13
2022-09-27T19:20:01.732Z,29.77
2022-09-27T19:23:06.012Z,32.20
2022-09-27T19:26:13.661Z,33.20
2022-09-27T19:29:17.832Z,34.03
2022-09-27T19:32:23.308Z,34.63
2022-09-27T19:35:27.702Z,35.70
2022-09-27T19:38:32.271Z,33.63
2022-09-27T19:41:36.057Z,34.95
2022-09-27T19:44:39.638Z,34.72
2022-09-27T19:47:44.841Z,102.57
2022-09-27T19:50:57.033Z,35.75
2022-09-27T19:54:00.429Z,42.65
2022-09-27T19:57:04.052Z,38.55
2022-09-27T20:00:09.074Z,38.67
2022-09-27T20:03:14.382Z,39.35
2022-09-27T20:06:21.438Z,37.75
2022-09-27T20:09:25.225Z,39.28
2022-09-27T20:12:28.976Z,36.25
2022-09-27T20:15:32.449Z,35.45
2022-09-27T20:18:40.924Z,35.67
2022-09-27T20:21:45.887Z,38.25
2022-09-27T20:24:51.250Z,32.05
2022-09-27T20:27:55.809Z,31.15
2022-09-27T20:31:03.799Z,30.75
2022-09-27T20:34:12.736Z,31.88
2022-09-27T20:37:16.587Z,33.20
2022-09-27T20:40:20.031Z,31.65
2022-09-27T20:43:26.554Z,30.83
2022-09-27T20:46:30.610Z,29.95
2022-09-27T20:49:35.543Z,30.80
2022-09-27T20:52:39.440Z,32.38
2022-09-27T20:55:42.850Z,30.50
2022-09-27T20:58:46.740Z,35.15
2022-09-27T21:01:52.837Z,32.17
2022-09-27T21:04:59.540Z,33.35
2022-09-27T21:08:03.160Z,34.10
2022-09-27T21:11:12.982Z,37.25
2022-09-27T21:14:19.460Z,37.83
2022-09-27T21:17:25.392Z,34.40
2022-09-27T21:20:30.870Z,40.45
2022-09-27T21:23:35.690Z,41.58
2022-09-27T21:26:43.046Z,39.65
2022-09-27T21:29:46.225Z,35.60
2022-09-27T21:32:49.388Z,38.95
2022-09-27T21:35:54.367Z,37.80
2022-09-27T21:38:59.186Z,39.22
2022-09-27T21:42:03.019Z,41.95
2022-09-27T21:45:07.024Z,42.58
2022-09-27T21:48:10.340Z,42.83
2022-09-27T21:51:16.986Z,39.75
2022-09-27T21:54:20.269Z,41.90
2022-09-27T21:57:23.533Z,37.58
2022-09-27T22:00:27.071Z,40.38
2022-09-27T22:03:30.294Z,39.42
2022-09-27T22:06:37.366Z,39.30
2022-09-27T22:09:40.686Z,39.20
2022-09-27T22:12:44.014Z,40.65
2022-09-27T22:15:50.235Z,43.65
2022-09-27T22:18:55.919Z,39.15
2022-09-27T22:22:00.764Z,42.58
2022-09-27T22:25:04.030Z,43.35
2022-09-27T22:28:08.381Z,46.83
2022-09-27T22:31:14.553Z,46.00
2022-09-27T22:34:28.933Z,45.90
2022-09-27T22:37:34.692Z,47.90
2022-09-27T22:40:38.010Z,68.80
2022-09-27T22:43:41.574Z,57.28
2022-09-27T22:46:45.938Z,52.83
2022-09-27T22:49:49.650Z,53.90
2022-09-27T22:52:54.374Z,61.13
2022-09-27T22:56:03.159Z,59.67
2022-09-27T22:59:07.426Z,56.95
2022-09-27T23:02:10.610Z,54.22
2022-09-27T23:05:13.901Z,53.97
2022-09-27T23:08:18.618Z,53.58
2022-09-27T23:11:23.503Z,50.30
2022-09-27T23:14:26.871Z,50.67
2022-09-27T23:17:30.120Z,50.00
2022-09-27T23:20:34.170Z,53.70
2022-09-27T23:23:41.323Z,45.80
2022-09-27T23:26:44.539Z,52.30
2022-09-27T23:29:47.746Z,53.90
2022-09-27T23:32:53.588Z,47.15
2022-09-27T23:35:57.098Z,52.08
2022-09-27T23:39:02.270Z,52.95
2022-09-27T23:42:06.420Z,51.92
2022-09-27T23:45:11.085Z,50.97
2022-09-27T23:48:14.499Z,54.03
2022-09-27T23:51:17.941Z,56.47
2022-09-27T23:54:22.584Z,48.13
2022-09-27T23:57:25.921Z,47.88
